KDWX

Dixon Airport

Dixon, Wyoming, USA
METAR KDWX 250055Z AUTO 29009KT 10SM CLR 24/M01 A3019 RMK AO2 T02381012
Observed Flight Rules
May-25 @ 00:55 UTC (12 minutes ago) Visual Flight Rules
Wind Visibility Clouds
290° at 9 knots 10 miles
  • Clear skies
Temperatures Readings
Current 24°C / 75°F
Dewpoint -1°C / 30°F
Humidity 19%
Altimeter 30.19" Hg
Pressure 1022 hPa
Elevation 1996
METAR KDWX 250055Z AUTO 29009KT 10SM CLR 24/M01 A3019 RMK AO2 T02381012
Observed Flight Rules
May-25 @ 00:55 UTC
(12 minutes ago)
VFR
Wind Visibility
290° at 9 knots 10 miles
Clouds
  • Clear skies
Temperature Dewpoint
24°C / 75°F -1°C / 30°F
Humidity Altimeter Pressure
19% 30.19" Hg 1022 hPa